sensor_id;sensor_type;location;lat;lon;timestamp;temperature;humidity
9527;DHT22;4802;51.494;6.770;2022-11-22T00:02:01;7.20;99.90
9527;DHT22;4802;51.494;6.770;2022-11-22T00:07:07;7.20;99.90
9527;DHT22;4802;51.494;6.770;2022-11-22T00:09:39;7.20;99.90
9527;DHT22;4802;51.494;6.770;2022-11-22T00:12:10;7.20;99.90
9527;DHT22;4802;51.494;6.770;2022-11-22T00:14:40;7.30;99.90
9527;DHT22;4802;51.494;6.770;2022-11-22T00:17:13;7.30;99.90
9527;DHT22;4802;51.494;6.770;2022-11-22T00:19:43;7.30;99.90
9527;DHT22;4802;51.494;6.770;2022-11-22T00:22:13;7.30;99.90
9527;DHT22;4802;51.494;6.770;2022-11-22T00:24:45;7.30;99.90
9527;DHT22;4802;51.494;6.770;2022-11-22T00:27:19;7.20;99.90
9527;DHT22;4802;51.494;6.770;2022-11-22T00:29:57;7.30;99.90
9527;DHT22;4802;51.494;6.770;2022-11-22T00:32:27;7.60;1.00
9527;DHT22;4802;51.494;6.770;2022-11-22T00:34:58;7.20;1.00
9527;DHT22;4802;51.494;6.770;2022-11-22T00:37:29;7.20;1.00
9527;DHT22;4802;51.494;6.770;2022-11-22T00:40:00;7.10;1.00
9527;DHT22;4802;51.494;6.770;2022-11-22T00:42:29;7.10;1.00
9527;DHT22;4802;51.494;6.770;2022-11-22T00:44:59;7.10;1.00
9527;DHT22;4802;51.494;6.770;2022-11-22T00:47:29;7.10;1.00
9527;DHT22;4802;51.494;6.770;2022-11-22T00:49:59;7.00;99.90
9527;DHT22;4802;51.494;6.770;2022-11-22T00:52:29;7.00;99.90
9527;DHT22;4802;51.494;6.770;2022-11-22T00:55:01;7.00;99.90
9527;DHT22;4802;51.494;6.770;2022-11-22T00:57:31;7.00;99.90
9527;DHT22;4802;51.494;6.770;2022-11-22T01:00:01;7.00;99.90
9527;DHT22;4802;51.494;6.770;2022-11-22T01:02:30;7.00;99.90
9527;DHT22;4802;51.494;6.770;2022-11-22T01:04:59;7.00;1.00
9527;DHT22;4802;51.494;6.770;2022-11-22T01:07:28;7.00;1.00
9527;DHT22;4802;51.494;6.770;2022-11-22T01:09:57;7.00;1.00
9527;DHT22;4802;51.494;6.770;2022-11-22T01:12:29;6.70;99.90
9527;DHT22;4802;51.494;6.770;2022-11-22T01:14:58;7.00;99.90
9527;DHT22;4802;51.494;6.770;2022-11-22T01:17:27;7.00;99.90
9527;DHT22;4802;51.494;6.770;2022-11-22T01:19:56;6.60;99.90
9527;DHT22;4802;51.494;6.770;2022-11-22T01:22:26;7.00;78.80
9527;DHT22;4802;51.494;6.770;2022-11-22T01:24:58;7.50;27.50
9527;DHT22;4802;51.494;6.770;2022-11-22T01:27:30;7.10;1.00
9527;DHT22;4802;51.494;6.770;2022-11-22T01:29:59;7.10;1.00
9527;DHT22;4802;51.494;6.770;2022-11-22T01:32:28;7.10;1.00
9527;DHT22;4802;51.494;6.770;2022-11-22T01:34:57;7.10;1.00
9527;DHT22;4802;51.494;6.770;2022-11-22T01:37:26;7.10;1.00
9527;DHT22;4802;51.494;6.770;2022-11-22T01:39:56;7.10;1.00
9527;DHT22;4802;51.494;6.770;2022-11-22T01:42:42;7.10;1.00
9527;DHT22;4802;51.494;6.770;2022-11-22T01:45:42;7.00;5.10
9527;DHT22;4802;51.494;6.770;2022-11-22T01:48:20;7.10;99.90
9527;DHT22;4802;51.494;6.770;2022-11-22T01:50:54;7.10;99.90
9527;DHT22;4802;51.494;6.770;2022-11-22T01:53:28;7.10;99.90
9527;DHT22;4802;51.494;6.770;2022-11-22T01:55:58;7.10;99.90
9527;DHT22;4802;51.494;6.770;2022-11-22T01:58:31;7.10;99.90
9527;DHT22;4802;51.494;6.770;2022-11-22T02:01:01;7.40;99.90
9527;DHT22;4802;51.494;6.770;2022-11-22T02:03:34;7.10;99.90
9527;DHT22;4802;51.494;6.770;2022-11-22T02:06:04;7.20;99.90
9527;DHT22;4802;51.494;6.770;2022-11-22T02:08:39;7.20;99.90
9527;DHT22;4802;51.494;6.770;2022-11-22T02:11:12;7.20;98.00
9527;DHT22;4802;51.494;6.770;2022-11-22T02:13:45;7.30;99.90
9527;DHT22;4802;51.494;6.770;2022-11-22T02:16:17;7.20;99.90
9527;DHT22;4802;51.494;6.770;2022-11-22T02:18:46;7.20;99.90
9527;DHT22;4802;51.494;6.770;2022-11-22T02:21:20;7.20;99.90
9527;DHT22;4802;51.494;6.770;2022-11-22T02:24:04;7.30;99.90
9527;DHT22;4802;51.494;6.770;2022-11-22T02:26:38;7.20;59.10
9527;DHT22;4802;51.494;6.770;2022-11-22T02:29:15;7.20;33.80
9527;DHT22;4802;51.494;6.770;2022-11-22T02:31:46;7.20;99.90
9527;DHT22;4802;51.494;6.770;2022-11-22T02:34:16;7.20;97.20
9527;DHT22;4802;51.494;6.770;2022-11-22T02:36:52;7.10;73.40
9527;DHT22;4802;51.494;6.770;2022-11-22T02:39:24;7.10;99.90
9527;DHT22;4802;51.494;6.770;2022-11-22T02:41:56;7.10;99.90
9527;DHT22;4802;51.494;6.770;2022-11-22T02:44:25;7.10;99.90
9527;DHT22;4802;51.494;6.770;2022-11-22T02:46:58;7.10;99.90
9527;DHT22;4802;51.494;6.770;2022-11-22T02:49:28;7.10;99.90
9527;DHT22;4802;51.494;6.770;2022-11-22T02:51:59;7.20;99.90
9527;DHT22;4802;51.494;6.770;2022-11-22T02:54:30;7.20;99.90
9527;DHT22;4802;51.494;6.770;2022-11-22T02:57:06;7.20;99.90
9527;DHT22;4802;51.494;6.770;2022-11-22T02:59:39;7.20;99.90
9527;DHT22;4802;51.494;6.770;2022-11-22T03:02:11;7.20;99.90
9527;DHT22;4802;51.494;6.770;2022-11-22T03:04:41;7.20;99.90
9527;DHT22;4802;51.494;6.770;2022-11-22T03:07:11;7.10;99.90
9527;DHT22;4802;51.494;6.770;2022-11-22T03:09:43;7.20;99.90
9527;DHT22;4802;51.494;6.770;2022-11-22T03:12:15;7.10;99.90
9527;DHT22;4802;51.494;6.770;2022-11-22T03:14:44;7.10;99.90
9527;DHT22;4802;51.494;6.770;2022-11-22T03:17:15;7.10;99.90
9527;DHT22;4802;51.494;6.770;2022-11-22T03:19:45;7.10;99.90
9527;DHT22;4802;51.494;6.770;2022-11-22T03:22:15;7.10;99.90
9527;DHT22;4802;51.494;6.770;2022-11-22T03:24:51;7.10;1.00
9527;DHT22;4802;51.494;6.770;2022-11-22T03:27:49;7.10;1.00
9527;DHT22;4802;51.494;6.770;2022-11-22T03:30:18;7.10;8.60
9527;DHT22;4802;51.494;6.770;2022-11-22T03:32:48;7.00;1.00
9527;DHT22;4802;51.494;6.770;2022-11-22T03:35:17;7.00;3.90
9527;DHT22;4802;51.494;6.770;2022-11-22T03:37:47;6.30;97.70
9527;DHT22;4802;51.494;6.770;2022-11-22T03:40:21;6.90;99.90
9527;DHT22;4802;51.494;6.770;2022-11-22T03:42:52;6.90;99.90
9527;DHT22;4802;51.494;6.770;2022-11-22T03:45:22;6.90;99.90
9527;DHT22;4802;51.494;6.770;2022-11-22T03:47:51;7.00;99.90
9527;DHT22;4802;51.494;6.770;2022-11-22T03:50:22;6.90;59.60
9527;DHT22;4802;51.494;6.770;2022-11-22T03:52:52;6.90;1.00
9527;DHT22;4802;51.494;6.770;2022-11-22T03:55:21;6.90;1.00
9527;DHT22;4802;51.494;6.770;2022-11-22T03:57:52;6.90;1.00
9527;DHT22;4802;51.494;6.770;2022-11-22T04:00:22;6.80;1.00
9527;DHT22;4802;51.494;6.770;2022-11-22T04:02:53;6.90;1.00
9527;DHT22;4802;51.494;6.770;2022-11-22T04:05:22;6.80;99.90
9527;DHT22;4802;51.494;6.770;2022-11-22T04:07:53;6.80;99.90
9527;DHT22;4802;51.494;6.770;2022-11-22T04:10:24;6.90;99.90
9527;DHT22;4802;51.494;6.770;2022-11-22T04:13:03;6.90;99.90
9527;DHT22;4802;51.494;6.770;2022-11-22T04:15:35;7.00;99.90
9527;DHT22;4802;51.494;6.770;2022-11-22T04:18:03;7.00;99.90
9527;DHT22;4802;51.494;6.770;2022-11-22T04:20:34;7.00;99.90
9527;DHT22;4802;51.494;6.770;2022-11-22T04:23:23;7.00;99.90
9527;DHT22;4802;51.494;6.770;2022-11-22T04:26:00;7.00;99.90
9527;DHT22;4802;51.494;6.770;2022-11-22T04:28:29;7.00;93.70
9527;DHT22;4802;51.494;6.770;2022-11-22T04:31:18;7.10;91.70
9527;DHT22;4802;51.494;6.770;2022-11-22T04:34:05;7.00;70.50
9527;DHT22;4802;51.494;6.770;2022-11-22T04:36:34;6.90;99.90
9527;DHT22;4802;51.494;6.770;2022-11-22T04:39:03;6.80;99.90
9527;DHT22;4802;51.494;6.770;2022-11-22T04:41:32;6.80;99.90
9527;DHT22;4802;51.494;6.770;2022-11-22T04:44:03;6.80;99.90
9527;DHT22;4802;51.494;6.770;2022-11-22T04:46:49;6.80;99.90
9527;DHT22;4802;51.494;6.770;2022-11-22T04:49:19;6.70;99.90
9527;DHT22;4802;51.494;6.770;2022-11-22T04:51:48;6.70;99.90
9527;DHT22;4802;51.494;6.770;2022-11-22T04:54:34;6.70;99.90
9527;DHT22;4802;51.494;6.770;2022-11-22T04:57:03;6.60;99.90
9527;DHT22;4802;51.494;6.770;2022-11-22T04:59:34;6.60;1.00
9527;DHT22;4802;51.494;6.770;2022-11-22T05:02:03;6.50;1.00
9527;DHT22;4802;51.494;6.770;2022-11-22T05:04:33;6.50;1.00
9527;DHT22;4802;51.494;6.770;2022-11-22T05:07:02;6.50;92.30
9527;DHT22;4802;51.494;6.770;2022-11-22T05:09:31;6.40;99.90
9527;DHT22;4802;51.494;6.770;2022-11-22T05:12:02;6.40;72.80
9527;DHT22;4802;51.494;6.770;2022-11-22T05:14:31;6.40;99.90
9527;DHT22;4802;51.494;6.770;2022-11-22T05:17:02;6.30;99.90
9527;DHT22;4802;51.494;6.770;2022-11-22T05:19:30;6.30;99.90
9527;DHT22;4802;51.494;6.770;2022-11-22T05:21:59;6.30;99.90
9527;DHT22;4802;51.494;6.770;2022-11-22T05:24:28;6.30;99.90
9527;DHT22;4802;51.494;6.770;2022-11-22T05:26:56;6.30;9.70
9527;DHT22;4802;51.494;6.770;2022-11-22T05:29:30;6.30;1.00
9527;DHT22;4802;51.494;6.770;2022-11-22T05:32:01;6.30;1.00
9527;DHT22;4802;51.494;6.770;2022-11-22T05:34:30;6.30;1.00
9527;DHT22;4802;51.494;6.770;2022-11-22T05:37:01;6.20;1.00
9527;DHT22;4802;51.494;6.770;2022-11-22T05:39:33;6.20;99.90
9527;DHT22;4802;51.494;6.770;2022-11-22T05:42:03;6.20;1.00
9527;DHT22;4802;51.494;6.770;2022-11-22T05:44:32;6.20;1.00
9527;DHT22;4802;51.494;6.770;2022-11-22T05:47:06;6.20;99.90
9527;DHT22;4802;51.494;6.770;2022-11-22T05:49:35;6.20;99.90
9527;DHT22;4802;51.494;6.770;2022-11-22T05:52:06;6.20;99.90
9527;DHT22;4802;51.494;6.770;2022-11-22T05:54:37;6.20;99.90
9527;DHT22;4802;51.494;6.770;2022-11-22T05:57:08;6.20;99.90
9527;DHT22;4802;51.494;6.770;2022-11-22T05:59:47;6.20;99.90
9527;DHT22;4802;51.494;6.770;2022-11-22T06:05:33;7.70;1.00
9527;DHT22;4802;51.494;6.770;2022-11-22T06:08:02;7.60;99.90
9527;DHT22;4802;51.494;6.770;2022-11-22T06:10:44;7.40;99.90
9527;DHT22;4802;51.494;6.770;2022-11-22T06:13:13;7.50;1.00
9527;DHT22;4802;51.494;6.770;2022-11-22T06:15:43;7.40;99.90
9527;DHT22;4802;51.494;6.770;2022-11-22T06:18:12;7.30;99.90
9527;DHT22;4802;51.494;6.770;2022-11-22T06:20:44;7.20;99.90
9527;DHT22;4802;51.494;6.770;2022-11-22T06:23:13;6.80;99.90
9527;DHT22;4802;51.494;6.770;2022-11-22T06:25:54;6.70;99.90
9527;DHT22;4802;51.494;6.770;2022-11-22T06:28:23;6.70;1.00
9527;DHT22;4802;51.494;6.770;2022-11-22T06:30:52;6.80;1.00
9527;DHT22;4802;51.494;6.770;2022-11-22T06:33:21;7.00;1.00
9527;DHT22;4802;51.494;6.770;2022-11-22T06:35:52;6.70;99.90
9527;DHT22;4802;51.494;6.770;2022-11-22T06:38:24;7.00;99.90
9527;DHT22;4802;51.494;6.770;2022-11-22T06:40:58;6.90;99.90
9527;DHT22;4802;51.494;6.770;2022-11-22T06:43:28;6.90;99.90
9527;DHT22;4802;51.494;6.770;2022-11-22T06:46:01;6.90;99.90
9527;DHT22;4802;51.494;6.770;2022-11-22T06:48:32;6.90;99.90
9527;DHT22;4802;51.494;6.770;2022-11-22T06:51:05;6.80;99.90
9527;DHT22;4802;51.494;6.770;2022-11-22T06:53:35;6.80;99.90
9527;DHT22;4802;51.494;6.770;2022-11-22T06:56:21;8.20;99.90
9527;DHT22;4802;51.494;6.770;2022-11-22T06:58:52;8.00;99.90
9527;DHT22;4802;51.494;6.770;2022-11-22T07:01:22;7.40;99.90
9527;DHT22;4802;51.494;6.770;2022-11-22T07:03:53;7.10;99.90
9527;DHT22;4802;51.494;6.770;2022-11-22T07:06:29;6.90;99.90
9527;DHT22;4802;51.494;6.770;2022-11-22T07:08:59;6.70;99.90
9527;DHT22;4802;51.494;6.770;2022-11-22T07:11:32;6.50;99.90
9527;DHT22;4802;51.494;6.770;2022-11-22T07:14:19;6.60;99.90
9527;DHT22;4802;51.494;6.770;2022-11-22T07:17:07;6.40;99.90
9527;DHT22;4802;51.494;6.770;2022-11-22T07:20:06;6.70;99.90
9527;DHT22;4802;51.494;6.770;2022-11-22T07:23:32;6.30;99.90
9527;DHT22;4802;51.494;6.770;2022-11-22T07:26:28;6.30;99.90
9527;DHT22;4802;51.494;6.770;2022-11-22T07:29:26;6.20;99.90
9527;DHT22;4802;51.494;6.770;2022-11-22T07:32:21;6.20;99.90
9527;DHT22;4802;51.494;6.770;2022-11-22T07:35:19;6.60;99.90
9527;DHT22;4802;51.494;6.770;2022-11-22T07:38:02;6.20;99.90
9527;DHT22;4802;51.494;6.770;2022-11-22T07:44:07;5.90;99.90
9527;DHT22;4802;51.494;6.770;2022-11-22T07:46:37;6.20;99.90
9527;DHT22;4802;51.494;6.770;2022-11-22T07:49:16;6.10;99.90
9527;DHT22;4802;51.494;6.770;2022-11-22T07:51:46;6.20;99.90
9527;DHT22;4802;51.494;6.770;2022-11-22T07:54:15;6.20;99.90
9527;DHT22;4802;51.494;6.770;2022-11-22T07:56:46;6.80;99.90
9527;DHT22;4802;51.494;6.770;2022-11-22T07:59:18;6.20;99.90
9527;DHT22;4802;51.494;6.770;2022-11-22T08:01:47;6.20;99.90
9527;DHT22;4802;51.494;6.770;2022-11-22T08:04:19;6.60;99.90
9527;DHT22;4802;51.494;6.770;2022-11-22T08:06:49;6.30;99.90
9527;DHT22;4802;51.494;6.770;2022-11-22T08:09:18;5.80;99.90
9527;DHT22;4802;51.494;6.770;2022-11-22T08:11:51;6.30;99.90
9527;DHT22;4802;51.494;6.770;2022-11-22T08:14:23;6.30;99.90
9527;DHT22;4802;51.494;6.770;2022-11-22T08:16:54;5.90;99.90
9527;DHT22;4802;51.494;6.770;2022-11-22T08:19:23;6.40;99.90
9527;DHT22;4802;51.494;6.770;2022-11-22T08:21:52;6.40;99.90
9527;DHT22;4802;51.494;6.770;2022-11-22T08:24:24;6.50;99.90
9527;DHT22;4802;51.494;6.770;2022-11-22T08:26:55;6.50;99.90
9527;DHT22;4802;51.494;6.770;2022-11-22T08:29:27;6.60;99.90
9527;DHT22;4802;51.494;6.770;2022-11-22T08:31:58;6.50;99.90
9527;DHT22;4802;51.494;6.770;2022-11-22T08:34:28;6.80;97.10
9527;DHT22;4802;51.494;6.770;2022-11-22T08:37:00;6.90;90.90
9527;DHT22;4802;51.494;6.770;2022-11-22T08:39:31;6.90;58.20
9527;DHT22;4802;51.494;6.770;2022-11-22T08:42:06;6.90;53.50
9527;DHT22;4802;51.494;6.770;2022-11-22T08:44:38;7.00;42.10
9527;DHT22;4802;51.494;6.770;2022-11-22T08:47:09;7.10;9.40
9527;DHT22;4802;51.494;6.770;2022-11-22T08:49:41;7.10;1.00
9527;DHT22;4802;51.494;6.770;2022-11-22T08:52:13;7.70;1.00
9527;DHT22;4802;51.494;6.770;2022-11-22T08:54:45;8.00;1.00
9527;DHT22;4802;51.494;6.770;2022-11-22T08:57:17;8.40;1.00
9527;DHT22;4802;51.494;6.770;2022-11-22T09:00:03;8.50;1.00
9527;DHT22;4802;51.494;6.770;2022-11-22T09:02:33;8.70;1.00
9527;DHT22;4802;51.494;6.770;2022-11-22T09:05:03;8.80;1.00
9527;DHT22;4802;51.494;6.770;2022-11-22T09:07:35;8.90;1.00
9527;DHT22;4802;51.494;6.770;2022-11-22T09:10:25;9.10;1.00
9527;DHT22;4802;51.494;6.770;2022-11-22T09:12:54;9.20;1.00
9527;DHT22;4802;51.494;6.770;2022-11-22T09:15:38;9.30;1.00
9527;DHT22;4802;51.494;6.770;2022-11-22T09:18:14;9.20;1.00
9527;DHT22;4802;51.494;6.770;2022-11-22T09:20:44;9.40;1.00
9527;DHT22;4802;51.494;6.770;2022-11-22T09:23:13;9.70;1.00
9527;DHT22;4802;51.494;6.770;2022-11-22T09:25:42;9.70;1.00
9527;DHT22;4802;51.494;6.770;2022-11-22T09:28:12;9.70;1.00
9527;DHT22;4802;51.494;6.770;2022-11-22T09:30:49;9.60;1.00
9527;DHT22;4802;51.494;6.770;2022-11-22T09:33:19;10.00;1.00
9527;DHT22;4802;51.494;6.770;2022-11-22T09:35:48;9.70;1.00
9527;DHT22;4802;51.494;6.770;2022-11-22T09:38:23;9.50;1.00
9527;DHT22;4802;51.494;6.770;2022-11-22T09:40:53;9.30;1.00
9527;DHT22;4802;51.494;6.770;2022-11-22T09:43:33;9.20;1.00
9527;DHT22;4802;51.494;6.770;2022-11-22T09:46:21;9.40;1.00
9527;DHT22;4802;51.494;6.770;2022-11-22T09:49:12;9.50;1.00
9527;DHT22;4802;51.494;6.770;2022-11-22T09:51:50;9.30;1.00
9527;DHT22;4802;51.494;6.770;2022-11-22T09:54:26;9.10;1.00
9527;DHT22;4802;51.494;6.770;2022-11-22T09:57:03;9.00;1.00
9527;DHT22;4802;51.494;6.770;2022-11-22T09:59:42;9.00;1.00
9527;DHT22;4802;51.494;6.770;2022-11-22T10:02:26;9.40;1.00
9527;DHT22;4802;51.494;6.770;2022-11-22T10:05:18;9.70;1.00
9527;DHT22;4802;51.494;6.770;2022-11-22T10:07:53;9.70;1.00
9527;DHT22;4802;51.494;6.770;2022-11-22T10:11:01;9.50;1.00
9527;DHT22;4802;51.494;6.770;2022-11-22T10:13:54;9.50;1.00
9527;DHT22;4802;51.494;6.770;2022-11-22T10:17:04;9.40;1.00
9527;DHT22;4802;51.494;6.770;2022-11-22T10:20:30;9.30;1.00
9527;DHT22;4802;51.494;6.770;2022-11-22T10:23:01;9.60;1.00
9527;DHT22;4802;51.494;6.770;2022-11-22T10:25:37;9.60;1.00
9527;DHT22;4802;51.494;6.770;2022-11-22T10:28:14;9.80;1.00
9527;DHT22;4802;51.494;6.770;2022-11-22T10:30:59;9.90;1.00
9527;DHT22;4802;51.494;6.770;2022-11-22T10:33:37;10.00;1.00
9527;DHT22;4802;51.494;6.770;2022-11-22T10:39:38;10.20;1.00
9527;DHT22;4802;51.494;6.770;2022-11-22T10:42:21;10.30;1.00
9527;DHT22;4802;51.494;6.770;2022-11-22T10:44:59;10.60;1.00
9527;DHT22;4802;51.494;6.770;2022-11-22T10:47:43;10.30;1.00
9527;DHT22;4802;51.494;6.770;2022-11-22T10:50:28;10.00;1.00
9527;DHT22;4802;51.494;6.770;2022-11-22T10:53:11;10.20;1.00
9527;DHT22;4802;51.494;6.770;2022-11-22T10:55:53;10.20;1.00
9527;DHT22;4802;51.494;6.770;2022-11-22T10:58:34;10.30;1.00
9527;DHT22;4802;51.494;6.770;2022-11-22T11:01:16;10.50;1.00
9527;DHT22;4802;51.494;6.770;2022-11-22T11:03:51;10.40;1.00
9527;DHT22;4802;51.494;6.770;2022-11-22T11:06:27;10.40;1.00
9527;DHT22;4802;51.494;6.770;2022-11-22T11:09:31;10.30;1.00
9527;DHT22;4802;51.494;6.770;2022-11-22T11:12:37;10.10;1.00
9527;DHT22;4802;51.494;6.770;2022-11-22T11:15:15;9.70;1.00
9527;DHT22;4802;51.494;6.770;2022-11-22T11:17:52;9.90;1.00
9527;DHT22;4802;51.494;6.770;2022-11-22T11:20:26;9.90;1.00
9527;DHT22;4802;51.494;6.770;2022-11-22T11:22:59;10.10;1.00
9527;DHT22;4802;51.494;6.770;2022-11-22T11:25:45;10.30;1.00
9527;DHT22;4802;51.494;6.770;2022-11-22T11:28:23;10.40;1.00
9527;DHT22;4802;51.494;6.770;2022-11-22T11:30:56;10.40;1.00
9527;DHT22;4802;51.494;6.770;2022-11-22T11:33:43;10.30;1.00
9527;DHT22;4802;51.494;6.770;2022-11-22T11:36:21;10.50;1.00
9527;DHT22;4802;51.494;6.770;2022-11-22T11:38:54;10.20;1.00
9527;DHT22;4802;51.494;6.770;2022-11-22T11:41:32;10.20;1.00
9527;DHT22;4802;51.494;6.770;2022-11-22T11:44:27;10.30;1.00
9527;DHT22;4802;51.494;6.770;2022-11-22T11:46:59;10.30;1.00
9527;DHT22;4802;51.494;6.770;2022-11-22T11:49:30;10.30;1.00
9527;DHT22;4802;51.494;6.770;2022-11-22T11:52:03;10.30;1.00
9527;DHT22;4802;51.494;6.770;2022-11-22T11:54:39;10.30;1.00
9527;DHT22;4802;51.494;6.770;2022-11-22T11:57:11;10.10;1.00
9527;DHT22;4802;51.494;6.770;2022-11-22T11:59:46;9.90;1.00
9527;DHT22;4802;51.494;6.770;2022-11-22T12:02:21;9.90;1.00
9527;DHT22;4802;51.494;6.770;2022-11-22T12:04:52;9.80;1.00
9527;DHT22;4802;51.494;6.770;2022-11-22T12:07:24;9.80;1.00
9527;DHT22;4802;51.494;6.770;2022-11-22T12:09:58;10.10;1.00
9527;DHT22;4802;51.494;6.770;2022-11-22T12:12:45;9.80;1.00
9527;DHT22;4802;51.494;6.770;2022-11-22T12:15:23;9.80;1.00
9527;DHT22;4802;51.494;6.770;2022-11-22T12:17:58;9.80;1.00
9527;DHT22;4802;51.494;6.770;2022-11-22T12:20:33;9.70;1.00
9527;DHT22;4802;51.494;6.770;2022-11-22T12:23:13;9.80;1.00
9527;DHT22;4802;51.494;6.770;2022-11-22T12:25:44;9.60;1.00
9527;DHT22;4802;51.494;6.770;2022-11-22T12:28:18;9.70;1.00
9527;DHT22;4802;51.494;6.770;2022-11-22T12:30:55;9.70;1.00
9527;DHT22;4802;51.494;6.770;2022-11-22T12:33:29;10.00;1.00
9527;DHT22;4802;51.494;6.770;2022-11-22T12:36:03;9.70;1.00
9527;DHT22;4802;51.494;6.770;2022-11-22T12:38:38;9.70;1.00
9527;DHT22;4802;51.494;6.770;2022-11-22T12:41:12;9.70;1.00
9527;DHT22;4802;51.494;6.770;2022-11-22T12:43:51;9.70;1.00
9527;DHT22;4802;51.494;6.770;2022-11-22T12:46:28;9.80;1.00
9527;DHT22;4802;51.494;6.770;2022-11-22T12:49:02;9.70;1.00
9527;DHT22;4802;51.494;6.770;2022-11-22T12:51:38;9.70;1.00
9527;DHT22;4802;51.494;6.770;2022-11-22T12:54:13;9.70;1.00
9527;DHT22;4802;51.494;6.770;2022-11-22T12:56:49;9.70;1.00
9527;DHT22;4802;51.494;6.770;2022-11-22T12:59:25;9.50;1.00
9527;DHT22;4802;51.494;6.770;2022-11-22T13:02:10;9.70;1.00
9527;DHT22;4802;51.494;6.770;2022-11-22T13:04:47;9.90;1.00
9527;DHT22;4802;51.494;6.770;2022-11-22T13:07:24;9.60;1.00
9527;DHT22;4802;51.494;6.770;2022-11-22T13:10:02;9.60;1.00
9527;DHT22;4802;51.494;6.770;2022-11-22T13:12:39;9.50;1.00
9527;DHT22;4802;51.494;6.770;2022-11-22T13:15:12;9.50;1.00
9527;DHT22;4802;51.494;6.770;2022-11-22T13:17:46;9.50;1.00
9527;DHT22;4802;51.494;6.770;2022-11-22T13:20:18;9.50;1.00
9527;DHT22;4802;51.494;6.770;2022-11-22T13:22:57;9.50;1.00
9527;DHT22;4802;51.494;6.770;2022-11-22T13:25:35;9.50;1.00
9527;DHT22;4802;51.494;6.770;2022-11-22T13:28:17;9.40;1.00
9527;DHT22;4802;51.494;6.770;2022-11-22T13:31:05;9.40;1.00
9527;DHT22;4802;51.494;6.770;2022-11-22T13:33:39;9.40;1.00
9527;DHT22;4802;51.494;6.770;2022-11-22T13:36:36;9.40;1.00
9527;DHT22;4802;51.494;6.770;2022-11-22T13:39:10;9.40;1.00
9527;DHT22;4802;51.494;6.770;2022-11-22T13:41:47;9.40;1.00
9527;DHT22;4802;51.494;6.770;2022-11-22T13:44:51;9.50;1.00
9527;DHT22;4802;51.494;6.770;2022-11-22T13:47:42;9.40;1.00
9527;DHT22;4802;51.494;6.770;2022-11-22T13:53:31;9.40;1.00
9527;DHT22;4802;51.494;6.770;2022-11-22T13:56:47;9.40;1.00
9527;DHT22;4802;51.494;6.770;2022-11-22T13:59:23;9.30;1.00
9527;DHT22;4802;51.494;6.770;2022-11-22T14:01:56;9.30;1.00
9527;DHT22;4802;51.494;6.770;2022-11-22T14:04:42;9.30;1.00
9527;DHT22;4802;51.494;6.770;2022-11-22T14:07:33;9.30;1.00
9527;DHT22;4802;51.494;6.770;2022-11-22T14:10:26;9.20;1.00
9527;DHT22;4802;51.494;6.770;2022-11-22T14:13:12;9.00;1.00
9527;DHT22;4802;51.494;6.770;2022-11-22T14:15:53;9.20;1.00
9527;DHT22;4802;51.494;6.770;2022-11-22T14:18:44;8.80;1.00
9527;DHT22;4802;51.494;6.770;2022-11-22T14:21:26;9.20;1.00
9527;DHT22;4802;51.494;6.770;2022-11-22T14:26:49;9.30;1.00
9527;DHT22;4802;51.494;6.770;2022-11-22T14:30:02;9.20;1.00
9527;DHT22;4802;51.494;6.770;2022-11-22T14:32:49;9.50;1.00
9527;DHT22;4802;51.494;6.770;2022-11-22T14:35:27;9.20;1.00
9527;DHT22;4802;51.494;6.770;2022-11-22T14:38:03;9.30;1.00
9527;DHT22;4802;51.494;6.770;2022-11-22T14:41:29;9.30;1.00
9527;DHT22;4802;51.494;6.770;2022-11-22T14:44:04;9.00;1.00
9527;DHT22;4802;51.494;6.770;2022-11-22T14:46:47;9.30;1.00
9527;DHT22;4802;51.494;6.770;2022-11-22T14:50:12;8.90;1.00
9527;DHT22;4802;51.494;6.770;2022-11-22T14:53:06;9.30;1.00
9527;DHT22;4802;51.494;6.770;2022-11-22T14:55:40;9.30;1.00
9527;DHT22;4802;51.494;6.770;2022-11-22T14:58:14;9.30;1.00
9527;DHT22;4802;51.494;6.770;2022-11-22T15:01:00;9.30;1.00
9527;DHT22;4802;51.494;6.770;2022-11-22T15:03:59;9.20;1.00
9527;DHT22;4802;51.494;6.770;2022-11-22T15:07:03;9.20;1.00
9527;DHT22;4802;51.494;6.770;2022-11-22T15:10:21;9.20;1.00
9527;DHT22;4802;51.494;6.770;2022-11-22T15:15:54;9.10;1.00
9527;DHT22;4802;51.494;6.770;2022-11-22T15:18:49;9.10;1.00
9527;DHT22;4802;51.494;6.770;2022-11-22T15:21:40;9.10;1.00
9527;DHT22;4802;51.494;6.770;2022-11-22T15:24:32;9.10;1.00
9527;DHT22;4802;51.494;6.770;2022-11-22T15:27:25;9.10;1.00
9527;DHT22;4802;51.494;6.770;2022-11-22T15:30:21;9.10;1.00
9527;DHT22;4802;51.494;6.770;2022-11-22T15:33:30;9.10;1.00
9527;DHT22;4802;51.494;6.770;2022-11-22T15:36:32;9.10;1.00
9527;DHT22;4802;51.494;6.770;2022-11-22T15:39:26;9.00;1.00
9527;DHT22;4802;51.494;6.770;2022-11-22T15:42:17;9.00;1.00
9527;DHT22;4802;51.494;6.770;2022-11-22T15:45:11;9.00;1.00
9527;DHT22;4802;51.494;6.770;2022-11-22T15:48:04;9.00;1.00
9527;DHT22;4802;51.494;6.770;2022-11-22T15:51:19;8.20;1.00
9527;DHT22;4802;51.494;6.770;2022-11-22T15:54:20;9.00;1.00
9527;DHT22;4802;51.494;6.770;2022-11-22T15:57:28;8.90;1.00
9527;DHT22;4802;51.494;6.770;2022-11-22T16:00:00;9.00;1.00
9527;DHT22;4802;51.494;6.770;2022-11-22T16:02:30;9.00;1.00
9527;DHT22;4802;51.494;6.770;2022-11-22T16:05:06;8.90;1.00
9527;DHT22;4802;51.494;6.770;2022-11-22T16:08:00;9.00;1.00
9527;DHT22;4802;51.494;6.770;2022-11-22T16:10:37;9.40;56.30
